sensor_id;sensor_type;location;lat;lon;timestamp;temperature;humidity
22623;DHT22;11478;51.094;7.030;2023-01-05T00:01:21;11.00;99.90
22623;DHT22;11478;51.094;7.030;2023-01-05T00:03:47;11.00;99.90
22623;DHT22;11478;51.094;7.030;2023-01-05T00:06:14;11.00;99.90
22623;DHT22;11478;51.094;7.030;2023-01-05T00:08:42;11.00;99.90
22623;DHT22;11478;51.094;7.030;2023-01-05T00:11:20;10.90;99.90
22623;DHT22;11478;51.094;7.030;2023-01-05T00:14:06;10.90;99.90
22623;DHT22;11478;51.094;7.030;2023-01-05T00:16:55;10.90;99.90
22623;DHT22;11478;51.094;7.030;2023-01-05T00:19:39;10.90;99.90
22623;DHT22;11478;51.094;7.030;2023-01-05T00:22:26;10.80;99.90
22623;DHT22;11478;51.094;7.030;2023-01-05T00:24:57;10.80;99.90
22623;DHT22;11478;51.094;7.030;2023-01-05T00:27:24;10.80;99.90
22623;DHT22;11478;51.094;7.030;2023-01-05T00:29:49;10.90;99.90
22623;DHT22;11478;51.094;7.030;2023-01-05T00:32:15;10.80;99.90
22623;DHT22;11478;51.094;7.030;2023-01-05T00:34:44;10.80;99.90
22623;DHT22;11478;51.094;7.030;2023-01-05T00:37:10;10.70;99.90
22623;DHT22;11478;51.094;7.030;2023-01-05T00:39:36;10.80;99.90
22623;DHT22;11478;51.094;7.030;2023-01-05T00:42:02;10.80;99.90
22623;DHT22;11478;51.094;7.030;2023-01-05T00:44:31;10.80;99.90
22623;DHT22;11478;51.094;7.030;2023-01-05T00:46:56;10.80;99.90
22623;DHT22;11478;51.094;7.030;2023-01-05T00:49:22;10.80;99.90
22623;DHT22;11478;51.094;7.030;2023-01-05T00:51:48;10.80;99.90
22623;DHT22;11478;51.094;7.030;2023-01-05T00:54:14;10.80;99.90
22623;DHT22;11478;51.094;7.030;2023-01-05T00:56:39;10.80;99.90
22623;DHT22;11478;51.094;7.030;2023-01-05T00:59:09;10.80;99.90
22623;DHT22;11478;51.094;7.030;2023-01-05T01:01:38;10.80;99.90
22623;DHT22;11478;51.094;7.030;2023-01-05T01:04:10;10.80;99.90
22623;DHT22;11478;51.094;7.030;2023-01-05T01:06:36;10.70;99.90
22623;DHT22;11478;51.094;7.030;2023-01-05T01:09:09;10.70;99.90
22623;DHT22;11478;51.094;7.030;2023-01-05T01:12:11;10.70;99.90
22623;DHT22;11478;51.094;7.030;2023-01-05T01:14:37;10.80;99.90
22623;DHT22;11478;51.094;7.030;2023-01-05T01:17:06;10.70;99.90
22623;DHT22;11478;51.094;7.030;2023-01-05T01:19:32;10.80;99.90
22623;DHT22;11478;51.094;7.030;2023-01-05T01:22:02;10.70;99.90
22623;DHT22;11478;51.094;7.030;2023-01-05T01:24:28;10.70;99.90
22623;DHT22;11478;51.094;7.030;2023-01-05T01:26:56;10.70;99.90
22623;DHT22;11478;51.094;7.030;2023-01-05T01:29:22;10.70;99.90
22623;DHT22;11478;51.094;7.030;2023-01-05T01:31:49;10.70;99.90
22623;DHT22;11478;51.094;7.030;2023-01-05T01:34:16;10.70;99.90
22623;DHT22;11478;51.094;7.030;2023-01-05T01:36:43;10.70;99.90
22623;DHT22;11478;51.094;7.030;2023-01-05T01:39:09;10.70;99.90
22623;DHT22;11478;51.094;7.030;2023-01-05T01:41:38;10.70;99.90
22623;DHT22;11478;51.094;7.030;2023-01-05T01:47:59;10.60;99.90
22623;DHT22;11478;51.094;7.030;2023-01-05T01:50:42;10.60;99.90
22623;DHT22;11478;51.094;7.030;2023-01-05T01:53:45;10.60;99.90
22623;DHT22;11478;51.094;7.030;2023-01-05T01:56:15;10.60;99.90
22623;DHT22;11478;51.094;7.030;2023-01-05T01:58:41;10.60;99.90
22623;DHT22;11478;51.094;7.030;2023-01-05T02:01:07;10.60;99.90
22623;DHT22;11478;51.094;7.030;2023-01-05T02:03:34;10.60;99.90
22623;DHT22;11478;51.094;7.030;2023-01-05T02:05:59;10.60;99.90
22623;DHT22;11478;51.094;7.030;2023-01-05T02:08:25;10.60;99.90
22623;DHT22;11478;51.094;7.030;2023-01-05T02:14:05;10.60;99.90
22623;DHT22;11478;51.094;7.030;2023-01-05T02:22:42;10.60;99.90
22623;DHT22;11478;51.094;7.030;2023-01-05T02:31:19;10.50;99.90
22623;DHT22;11478;51.094;7.030;2023-01-05T02:39:27;10.40;99.90
22623;DHT22;11478;51.094;7.030;2023-01-05T02:42:12;10.40;99.90
22623;DHT22;11478;51.094;7.030;2023-01-05T02:44:39;10.40;99.90
22623;DHT22;11478;51.094;7.030;2023-01-05T02:49:51;10.40;99.90
22623;DHT22;11478;51.094;7.030;2023-01-05T02:52:20;10.40;99.90
22623;DHT22;11478;51.094;7.030;2023-01-05T02:55:07;10.40;99.90
22623;DHT22;11478;51.094;7.030;2023-01-05T02:57:40;10.40;99.90
22623;DHT22;11478;51.094;7.030;2023-01-05T03:00:38;10.40;99.90
22623;DHT22;11478;51.094;7.030;2023-01-05T03:05:42;10.30;99.90
22623;DHT22;11478;51.094;7.030;2023-01-05T03:08:11;10.30;99.90
22623;DHT22;11478;51.094;7.030;2023-01-05T03:11:09;10.30;99.90
22623;DHT22;11478;51.094;7.030;2023-01-05T03:16:50;10.40;99.90
22623;DHT22;11478;51.094;7.030;2023-01-05T03:19:19;10.40;99.90
22623;DHT22;11478;51.094;7.030;2023-01-05T03:22:05;10.30;99.90
22623;DHT22;11478;51.094;7.030;2023-01-05T03:24:52;10.40;99.90
22623;DHT22;11478;51.094;7.030;2023-01-05T03:27:37;10.30;99.90
22623;DHT22;11478;51.094;7.030;2023-01-05T03:30:34;10.30;99.90
22623;DHT22;11478;51.094;7.030;2023-01-05T03:33:47;10.30;99.90
22623;DHT22;11478;51.094;7.030;2023-01-05T03:36:40;10.30;99.90
22623;DHT22;11478;51.094;7.030;2023-01-05T03:39:14;10.30;99.90
22623;DHT22;11478;51.094;7.030;2023-01-05T03:41:44;10.30;99.90
22623;DHT22;11478;51.094;7.030;2023-01-05T03:44:11;10.30;99.90
22623;DHT22;11478;51.094;7.030;2023-01-05T03:46:38;10.30;99.90
22623;DHT22;11478;51.094;7.030;2023-01-05T03:49:04;10.30;99.90
22623;DHT22;11478;51.094;7.030;2023-01-05T03:51:38;10.30;99.90
22623;DHT22;11478;51.094;7.030;2023-01-05T03:54:04;10.30;99.90
22623;DHT22;11478;51.094;7.030;2023-01-05T03:56:48;10.30;99.90
22623;DHT22;11478;51.094;7.030;2023-01-05T03:59:14;10.20;99.90
22623;DHT22;11478;51.094;7.030;2023-01-05T04:01:41;10.20;99.90
22623;DHT22;11478;51.094;7.030;2023-01-05T04:04:06;10.10;99.90
22623;DHT22;11478;51.094;7.030;2023-01-05T04:06:34;10.10;99.90
22623;DHT22;11478;51.094;7.030;2023-01-05T04:09:00;10.00;99.90
22623;DHT22;11478;51.094;7.030;2023-01-05T04:11:26;9.90;99.90
22623;DHT22;11478;51.094;7.030;2023-01-05T04:14:22;9.90;99.90
22623;DHT22;11478;51.094;7.030;2023-01-05T04:16:47;9.80;99.90
22623;DHT22;11478;51.094;7.030;2023-01-05T04:19:28;9.70;99.90
22623;DHT22;11478;51.094;7.030;2023-01-05T04:21:54;9.80;99.90
22623;DHT22;11478;51.094;7.030;2023-01-05T04:24:31;9.80;99.90
22623;DHT22;11478;51.094;7.030;2023-01-05T04:26:56;9.80;99.90
22623;DHT22;11478;51.094;7.030;2023-01-05T04:29:26;9.80;99.90
22623;DHT22;11478;51.094;7.030;2023-01-05T04:31:52;9.90;99.90
22623;DHT22;11478;51.094;7.030;2023-01-05T04:34:18;9.90;99.90
22623;DHT22;11478;51.094;7.030;2023-01-05T04:36:45;9.90;99.90
22623;DHT22;11478;51.094;7.030;2023-01-05T04:39:13;9.90;99.90
22623;DHT22;11478;51.094;7.030;2023-01-05T04:41:38;9.90;99.90
22623;DHT22;11478;51.094;7.030;2023-01-05T04:44:04;9.90;99.90
22623;DHT22;11478;51.094;7.030;2023-01-05T04:46:30;9.90;99.90
22623;DHT22;11478;51.094;7.030;2023-01-05T04:48:58;10.00;99.90
22623;DHT22;11478;51.094;7.030;2023-01-05T04:51:27;9.90;99.90
22623;DHT22;11478;51.094;7.030;2023-01-05T04:53:52;9.90;99.90
22623;DHT22;11478;51.094;7.030;2023-01-05T04:56:19;9.80;99.90
22623;DHT22;11478;51.094;7.030;2023-01-05T04:58:45;9.80;99.90
22623;DHT22;11478;51.094;7.030;2023-01-05T05:01:12;9.80;99.90
22623;DHT22;11478;51.094;7.030;2023-01-05T05:03:38;9.70;99.90
22623;DHT22;11478;51.094;7.030;2023-01-05T05:06:06;9.70;99.90
22623;DHT22;11478;51.094;7.030;2023-01-05T05:08:32;9.60;99.90
22623;DHT22;11478;51.094;7.030;2023-01-05T05:10:58;9.70;99.90
22623;DHT22;11478;51.094;7.030;2023-01-05T05:13:25;9.60;99.90
22623;DHT22;11478;51.094;7.030;2023-01-05T05:15:56;9.60;99.90
22623;DHT22;11478;51.094;7.030;2023-01-05T05:18:21;9.70;99.90
22623;DHT22;11478;51.094;7.030;2023-01-05T05:21:04;9.70;99.90
22623;DHT22;11478;51.094;7.030;2023-01-05T05:23:30;9.70;99.90
22623;DHT22;11478;51.094;7.030;2023-01-05T05:26:09;9.70;99.90
22623;DHT22;11478;51.094;7.030;2023-01-05T05:28:35;9.70;99.90
22623;DHT22;11478;51.094;7.030;2023-01-05T05:31:04;9.70;99.90
22623;DHT22;11478;51.094;7.030;2023-01-05T05:33:30;9.70;99.90
22623;DHT22;11478;51.094;7.030;2023-01-05T05:35:57;9.70;99.90
22623;DHT22;11478;51.094;7.030;2023-01-05T05:38:23;9.70;99.90
22623;DHT22;11478;51.094;7.030;2023-01-05T05:40:49;9.60;99.90
22623;DHT22;11478;51.094;7.030;2023-01-05T05:43:15;9.70;99.90
22623;DHT22;11478;51.094;7.030;2023-01-05T05:45:44;9.60;99.90
22623;DHT22;11478;51.094;7.030;2023-01-05T05:48:10;9.60;99.90
22623;DHT22;11478;51.094;7.030;2023-01-05T05:50:36;9.60;99.90
22623;DHT22;11478;51.094;7.030;2023-01-05T05:53:02;9.60;99.90
22623;DHT22;11478;51.094;7.030;2023-01-05T05:55:28;9.60;99.90
22623;DHT22;11478;51.094;7.030;2023-01-05T05:57:54;9.50;99.90
22623;DHT22;11478;51.094;7.030;2023-01-05T06:00:22;9.60;99.90
22623;DHT22;11478;51.094;7.030;2023-01-05T06:02:48;9.60;99.90
22623;DHT22;11478;51.094;7.030;2023-01-05T06:05:14;9.60;99.90
22623;DHT22;11478;51.094;7.030;2023-01-05T06:07:40;9.60;99.90
22623;DHT22;11478;51.094;7.030;2023-01-05T06:10:06;9.60;99.90
22623;DHT22;11478;51.094;7.030;2023-01-05T06:12:33;9.70;99.90
22623;DHT22;11478;51.094;7.030;2023-01-05T06:14:59;9.70;99.90
22623;DHT22;11478;51.094;7.030;2023-01-05T06:17:24;9.70;99.90
22623;DHT22;11478;51.094;7.030;2023-01-05T06:19:50;9.70;99.90
22623;DHT22;11478;51.094;7.030;2023-01-05T06:22:18;9.80;99.90
22623;DHT22;11478;51.094;7.030;2023-01-05T06:24:44;9.70;99.90
22623;DHT22;11478;51.094;7.030;2023-01-05T06:27:13;9.70;99.90
22623;DHT22;11478;51.094;7.030;2023-01-05T06:29:38;9.60;99.90
22623;DHT22;11478;51.094;7.030;2023-01-05T06:32:04;9.60;99.90
22623;DHT22;11478;51.094;7.030;2023-01-05T06:34:30;9.60;99.90
22623;DHT22;11478;51.094;7.030;2023-01-05T06:37:01;9.60;99.90
22623;DHT22;11478;51.094;7.030;2023-01-05T06:39:27;9.60;99.90
22623;DHT22;11478;51.094;7.030;2023-01-05T06:41:53;9.60;99.90
22623;DHT22;11478;51.094;7.030;2023-01-05T06:44:18;9.50;99.90
22623;DHT22;11478;51.094;7.030;2023-01-05T06:46:44;9.50;99.90
22623;DHT22;11478;51.094;7.030;2023-01-05T06:49:10;9.50;99.90
22623;DHT22;11478;51.094;7.030;2023-01-05T06:51:39;9.50;99.90
22623;DHT22;11478;51.094;7.030;2023-01-05T06:54:05;9.50;99.90
22623;DHT22;11478;51.094;7.030;2023-01-05T06:56:32;9.40;99.90
22623;DHT22;11478;51.094;7.030;2023-01-05T06:58:58;9.50;99.90
22623;DHT22;11478;51.094;7.030;2023-01-05T07:01:24;9.40;99.90
22623;DHT22;11478;51.094;7.030;2023-01-05T07:03:50;9.40;99.90
22623;DHT22;11478;51.094;7.030;2023-01-05T07:06:15;9.40;99.90
22623;DHT22;11478;51.094;7.030;2023-01-05T07:08:41;9.40;99.90
22623;DHT22;11478;51.094;7.030;2023-01-05T07:11:07;9.40;99.90
22623;DHT22;11478;51.094;7.030;2023-01-05T07:13:34;9.30;99.90
22623;DHT22;11478;51.094;7.030;2023-01-05T07:16:01;9.30;99.90
22623;DHT22;11478;51.094;7.030;2023-01-05T07:18:26;9.30;99.90
22623;DHT22;11478;51.094;7.030;2023-01-05T07:20:52;9.30;99.90
22623;DHT22;11478;51.094;7.030;2023-01-05T07:23:21;9.30;99.90
22623;DHT22;11478;51.094;7.030;2023-01-05T07:25:47;9.30;99.90
22623;DHT22;11478;51.094;7.030;2023-01-05T07:28:16;9.30;99.90
22623;DHT22;11478;51.094;7.030;2023-01-05T07:30:41;9.30;99.90
22623;DHT22;11478;51.094;7.030;2023-01-05T07:33:08;9.30;99.90
22623;DHT22;11478;51.094;7.030;2023-01-05T07:35:34;9.30;99.90
22623;DHT22;11478;51.094;7.030;2023-01-05T07:38:03;9.30;99.90
22623;DHT22;11478;51.094;7.030;2023-01-05T07:40:29;9.30;99.90
22623;DHT22;11478;51.094;7.030;2023-01-05T07:42:58;9.40;99.90
22623;DHT22;11478;51.094;7.030;2023-01-05T07:45:23;9.40;99.90
22623;DHT22;11478;51.094;7.030;2023-01-05T07:48:02;9.40;99.90
22623;DHT22;11478;51.094;7.030;2023-01-05T07:50:28;9.40;99.90
22623;DHT22;11478;51.094;7.030;2023-01-05T07:52:57;9.40;99.90
22623;DHT22;11478;51.094;7.030;2023-01-05T07:55:24;9.40;99.90
22623;DHT22;11478;51.094;7.030;2023-01-05T07:57:54;9.40;99.90
22623;DHT22;11478;51.094;7.030;2023-01-05T08:00:19;9.40;99.90
22623;DHT22;11478;51.094;7.030;2023-01-05T08:02:45;9.50;99.90
22623;DHT22;11478;51.094;7.030;2023-01-05T08:05:11;9.50;99.90
22623;DHT22;11478;51.094;7.030;2023-01-05T08:07:40;9.50;99.90
22623;DHT22;11478;51.094;7.030;2023-01-05T08:10:06;9.50;99.90
22623;DHT22;11478;51.094;7.030;2023-01-05T08:12:50;9.50;99.90
22623;DHT22;11478;51.094;7.030;2023-01-05T08:15:39;9.50;99.90
22623;DHT22;11478;51.094;7.030;2023-01-05T08:18:08;9.60;99.90
22623;DHT22;11478;51.094;7.030;2023-01-05T08:20:36;9.60;99.90
22623;DHT22;11478;51.094;7.030;2023-01-05T08:23:02;9.60;99.90
22623;DHT22;11478;51.094;7.030;2023-01-05T08:25:53;9.60;99.90
22623;DHT22;11478;51.094;7.030;2023-01-05T08:28:19;9.70;99.90
22623;DHT22;11478;51.094;7.030;2023-01-05T08:34:02;9.70;99.90
22623;DHT22;11478;51.094;7.030;2023-01-05T08:36:29;9.70;99.90
22623;DHT22;11478;51.094;7.030;2023-01-05T08:38:58;9.80;99.90
22623;DHT22;11478;51.094;7.030;2023-01-05T08:41:38;9.90;99.90
22623;DHT22;11478;51.094;7.030;2023-01-05T08:44:09;9.90;99.90
22623;DHT22;11478;51.094;7.030;2023-01-05T08:46:42;9.90;99.90
22623;DHT22;11478;51.094;7.030;2023-01-05T08:49:08;9.90;99.90
22623;DHT22;11478;51.094;7.030;2023-01-05T08:51:36;9.90;99.90
22623;DHT22;11478;51.094;7.030;2023-01-05T08:54:02;9.90;99.90
22623;DHT22;11478;51.094;7.030;2023-01-05T08:56:30;10.00;99.90
22623;DHT22;11478;51.094;7.030;2023-01-05T08:58:56;10.00;99.90
22623;DHT22;11478;51.094;7.030;2023-01-05T09:01:24;10.00;99.90
22623;DHT22;11478;51.094;7.030;2023-01-05T09:03:50;10.00;99.90
22623;DHT22;11478;51.094;7.030;2023-01-05T09:06:16;10.00;99.90
22623;DHT22;11478;51.094;7.030;2023-01-05T09:08:43;10.00;99.90
22623;DHT22;11478;51.094;7.030;2023-01-05T09:11:15;10.00;99.90
22623;DHT22;11478;51.094;7.030;2023-01-05T09:13:46;10.00;99.90
22623;DHT22;11478;51.094;7.030;2023-01-05T09:16:16;10.00;99.90
22623;DHT22;11478;51.094;7.030;2023-01-05T09:18:43;10.00;99.90
22623;DHT22;11478;51.094;7.030;2023-01-05T09:21:10;10.00;99.90
22623;DHT22;11478;51.094;7.030;2023-01-05T09:23:36;10.00;99.90
22623;DHT22;11478;51.094;7.030;2023-01-05T09:26:04;10.00;99.90
22623;DHT22;11478;51.094;7.030;2023-01-05T09:28:30;10.00;99.90
22623;DHT22;11478;51.094;7.030;2023-01-05T09:31:05;10.00;99.90
22623;DHT22;11478;51.094;7.030;2023-01-05T09:33:31;10.00;99.90
22623;DHT22;11478;51.094;7.030;2023-01-05T09:36:07;10.10;99.90
22623;DHT22;11478;51.094;7.030;2023-01-05T09:38:35;10.10;99.90
22623;DHT22;11478;51.094;7.030;2023-01-05T09:41:37;10.10;99.90
22623;DHT22;11478;51.094;7.030;2023-01-05T09:44:27;10.20;99.90
22623;DHT22;11478;51.094;7.030;2023-01-05T09:47:41;10.20;99.90
22623;DHT22;11478;51.094;7.030;2023-01-05T09:49:49;10.20;99.90
22623;DHT22;11478;51.094;7.030;2023-01-05T09:52:26;10.20;99.90
22623;DHT22;11478;51.094;7.030;2023-01-05T09:54:52;10.30;99.90
22623;DHT22;11478;51.094;7.030;2023-01-05T09:57:26;10.30;99.90
22623;DHT22;11478;51.094;7.030;2023-01-05T10:00:02;10.30;99.90
22623;DHT22;11478;51.094;7.030;2023-01-05T10:02:49;10.30;99.90
22623;DHT22;11478;51.094;7.030;2023-01-05T10:05:17;10.30;99.90
22623;DHT22;11478;51.094;7.030;2023-01-05T10:13:23;10.30;99.90
22623;DHT22;11478;51.094;7.030;2023-01-05T10:15:53;10.40;99.90
22623;DHT22;11478;51.094;7.030;2023-01-05T10:18:29;10.40;99.90
22623;DHT22;11478;51.094;7.030;2023-01-05T10:21:16;10.40;99.90
22623;DHT22;11478;51.094;7.030;2023-01-05T10:29:47;10.50;99.90
22623;DHT22;11478;51.094;7.030;2023-01-05T10:32:47;10.40;99.90
22623;DHT22;11478;51.094;7.030;2023-01-05T10:35:26;10.40;99.90
22623;DHT22;11478;51.094;7.030;2023-01-05T10:38:29;10.40;99.90
22623;DHT22;11478;51.094;7.030;2023-01-05T10:41:03;10.40;99.90
22623;DHT22;11478;51.094;7.030;2023-01-05T10:46:24;10.50;99.90
22623;DHT22;11478;51.094;7.030;2023-01-05T10:48:50;10.40;99.90
22623;DHT22;11478;51.094;7.030;2023-01-05T10:51:16;10.50;99.90
22623;DHT22;11478;51.094;7.030;2023-01-05T10:53:43;10.50;99.90
22623;DHT22;11478;51.094;7.030;2023-01-05T10:56:23;10.60;99.90
22623;DHT22;11478;51.094;7.030;2023-01-05T10:59:07;10.70;99.90
22623;DHT22;11478;51.094;7.030;2023-01-05T11:01:34;10.80;99.90
22623;DHT22;11478;51.094;7.030;2023-01-05T11:06:40;10.80;99.90
22623;DHT22;11478;51.094;7.030;2023-01-05T11:09:24;10.80;99.90
22623;DHT22;11478;51.094;7.030;2023-01-05T11:12:02;10.80;99.90
22623;DHT22;11478;51.094;7.030;2023-01-05T11:14:32;10.70;99.90
22623;DHT22;11478;51.094;7.030;2023-01-05T11:17:02;10.70;99.90
22623;DHT22;11478;51.094;7.030;2023-01-05T11:19:34;10.70;99.90
22623;DHT22;11478;51.094;7.030;2023-01-05T11:22:32;10.70;99.90
22623;DHT22;11478;51.094;7.030;2023-01-05T11:27:44;10.60;99.90
22623;DHT22;11478;51.094;7.030;2023-01-05T11:30:19;10.60;99.90
22623;DHT22;11478;51.094;7.030;2023-01-05T11:32:46;10.70;99.90
22623;DHT22;11478;51.094;7.030;2023-01-05T11:35:35;10.70;99.90
22623;DHT22;11478;51.094;7.030;2023-01-05T11:38:02;10.70;99.90
22623;DHT22;11478;51.094;7.030;2023-01-05T11:40:32;10.80;99.90
22623;DHT22;11478;51.094;7.030;2023-01-05T11:42:59;10.90;99.90
22623;DHT22;11478;51.094;7.030;2023-01-05T11:45:57;10.90;99.90
22623;DHT22;11478;51.094;7.030;2023-01-05T11:48:26;10.90;99.90
22623;DHT22;11478;51.094;7.030;2023-01-05T11:51:00;10.90;99.90
22623;DHT22;11478;51.094;7.030;2023-01-05T11:58:41;10.90;99.90
22623;DHT22;11478;51.094;7.030;2023-01-05T12:09:36;11.00;99.90
22623;DHT22;11478;51.094;7.030;2023-01-05T12:15:06;11.10;99.90
22623;DHT22;11478;51.094;7.030;2023-01-05T12:30:54;10.90;99.90
22623;DHT22;11478;51.094;7.030;2023-01-05T12:33:54;10.90;99.90
22623;DHT22;11478;51.094;7.030;2023-01-05T12:42:31;10.90;99.90
22623;DHT22;11478;51.094;7.030;2023-01-05T12:48:05;11.10;99.90
22623;DHT22;11478;51.094;7.030;2023-01-05T12:53:20;11.10;99.90
22623;DHT22;11478;51.094;7.030;2023-01-05T12:55:54;11.10;99.90
22623;DHT22;11478;51.094;7.030;2023-01-05T12:58:28;11.00;99.90
22623;DHT22;11478;51.094;7.030;2023-01-05T13:00:58;10.90;99.90
22623;DHT22;11478;51.094;7.030;2023-01-05T13:03:53;10.90;99.90
22623;DHT22;11478;51.094;7.030;2023-01-05T13:06:22;10.90;99.90
22623;DHT22;11478;51.094;7.030;2023-01-05T13:09:03;10.80;99.90
22623;DHT22;11478;51.094;7.030;2023-01-05T13:11:45;10.80;99.90
22623;DHT22;11478;51.094;7.030;2023-01-05T13:14:20;10.70;99.90
22623;DHT22;11478;51.094;7.030;2023-01-05T13:17:03;10.70;99.90
22623;DHT22;11478;51.094;7.030;2023-01-05T13:20:09;10.70;99.90
22623;DHT22;11478;51.094;7.030;2023-01-05T13:22:39;10.60;99.90
22623;DHT22;11478;51.094;7.030;2023-01-05T13:25:20;10.60;99.90
22623;DHT22;11478;51.094;7.030;2023-01-05T13:27:46;10.50;99.90
22623;DHT22;11478;51.094;7.030;2023-01-05T13:30:38;10.60;99.90
22623;DHT22;11478;51.094;7.030;2023-01-05T13:53:16;10.90;99.90
22623;DHT22;11478;51.094;7.030;2023-01-05T13:55:51;10.90;99.90
22623;DHT22;11478;51.094;7.030;2023-01-05T14:01:32;11.00;99.90
22623;DHT22;11478;51.094;7.030;2023-01-05T14:03:59;10.90;99.90
22623;DHT22;11478;51.094;7.030;2023-01-05T14:06:35;11.00;99.90
22623;DHT22;11478;51.094;7.030;2023-01-05T14:09:55;10.90;99.90
22623;DHT22;11478;51.094;7.030;2023-01-05T14:15:04;10.90;99.90
22623;DHT22;11478;51.094;7.030;2023-01-05T14:20:48;10.90;99.90
22623;DHT22;11478;51.094;7.030;2023-01-05T14:26:04;10.90;99.90
22623;DHT22;11478;51.094;7.030;2023-01-05T14:34:01;10.90;99.90
22623;DHT22;11478;51.094;7.030;2023-01-05T14:36:50;10.90;99.90
22623;DHT22;11478;51.094;7.030;2023-01-05T14:44:48;10.80;99.90
22623;DHT22;11478;51.094;7.030;2023-01-05T14:47:39;10.70;99.90
22623;DHT22;11478;51.094;7.030;2023-01-05T14:53:03;10.70;99.90
22623;DHT22;11478;51.094;7.030;2023-01-05T14:55:32;10.70;99.90
22623;DHT22;11478;51.094;7.030;2023-01-05T14:58:01;10.60;99.90
22623;DHT22;11478;51.094;7.030;2023-01-05T15:03:04;10.70;99.90
22623;DHT22;11478;51.094;7.030;2023-01-05T15:05:33;10.60;99.90
22623;DHT22;11478;51.094;7.030;2023-01-05T15:08:10;10.60;99.90
22623;DHT22;11478;51.094;7.030;2023-01-05T15:13:42;10.60;99.90
22623;DHT22;11478;51.094;7.030;2023-01-05T15:36:24;10.30;99.90
22623;DHT22;11478;51.094;7.030;2023-01-05T15:38:50;10.30;99.90
22623;DHT22;11478;51.094;7.030;2023-01-05T15:41:20;10.20;99.90
22623;DHT22;11478;51.094;7.030;2023-01-05T15:43:48;10.20;99.90
22623;DHT22;11478;51.094;7.030;2023-01-05T15:46:20;10.10;99.90
22623;DHT22;11478;51.094;7.030;2023-01-05T15:48:50;10.10;99.90
22623;DHT22;11478;51.094;7.030;2023-01-05T15:51:34;10.00;99.90
22623;DHT22;11478;51.094;7.030;2023-01-05T15:54:02;10.00;99.90
22623;DHT22;11478;51.094;7.030;2023-01-05T15:56:37;10.00;99.90
22623;DHT22;11478;51.094;7.030;2023-01-05T15:59:32;9.90;99.90
22623;DHT22;11478;51.094;7.030;2023-01-05T16:02:24;9.90;99.90
22623;DHT22;11478;51.094;7.030;2023-01-05T16:05:11;9.80;99.90
22623;DHT22;11478;51.094;7.030;2023-01-05T16:07:52;9.80;99.90
22623;DHT22;11478;51.094;7.030;2023-01-05T16:10:26;9.70;99.90
22623;DHT22;11478;51.094;7.030;2023-01-05T16:13:36;9.70;99.90
22623;DHT22;11478;51.094;7.030;2023-01-05T16:16:08;9.70;99.90
22623;DHT22;11478;51.094;7.030;2023-01-05T16:18:52;9.70;99.90
22623;DHT22;11478;51.094;7.030;2023-01-05T16:21:57;9.60;99.90
22623;DHT22;11478;51.094;7.030;2023-01-05T16:26:54;9.60;99.90
22623;DHT22;11478;51.094;7.030;2023-01-05T16:31:56;9.60;99.90
22623;DHT22;11478;51.094;7.030;2023-01-05T16:34:23;9.60;99.90
22623;DHT22;11478;51.094;7.030;2023-01-05T16:37:13;9.60;99.90
22623;DHT22;11478;51.094;7.030;2023-01-05T16:39:46;9.60;99.90
22623;DHT22;11478;51.094;7.030;2023-01-05T16:42:20;9.60;99.90
22623;DHT22;11478;51.094;7.030;2023-01-05T16:45:25;9.60;99.90
22623;DHT22;11478;51.094;7.030;2023-01-05T16:47:51;9.60;99.90
22623;DHT22;11478;51.094;7.030;2023-01-05T16:50:51;9.60;99.90
22623;DHT22;11478;51.094;7.030;2023-01-05T16:53:17;9.60;99.90
22623;DHT22;11478;51.094;7.030;2023-01-05T16:55:43;9.60;99.90
22623;DHT22;11478;51.094;7.030;2023-01-05T17:00:54;9.60;99.90
22623;DHT22;11478;51.094;7.030;2023-01-05T17:03:39;9.60;99.90
22623;DHT22;11478;51.094;7.030;2023-01-05T17:06:23;9.60;99.90
22623;DHT22;11478;51.094;7.030;2023-01-05T17:08:50;9.50;99.90
22623;DHT22;11478;51.094;7.030;2023-01-05T17:11:20;9.50;99.90
22623;DHT22;11478;51.094;7.030;2023-01-05T17:13:53;9.50;99.90
22623;DHT22;11478;51.094;7.030;2023-01-05T17:16:20;9.50;99.90
22623;DHT22;11478;51.094;7.030;2023-01-05T17:18:50;9.40;99.90
22623;DHT22;11478;51.094;7.030;2023-01-05T17:21:18;9.40;99.90
22623;DHT22;11478;51.094;7.030;2023-01-05T17:23:48;9.40;99.90
22623;DHT22;11478;51.094;7.030;2023-01-05T17:26:28;9.40;99.90
22623;DHT22;11478;51.094;7.030;2023-01-05T17:29:02;9.40;99.90
22623;DHT22;11478;51.094;7.030;2023-01-05T17:31:28;9.40;99.90
22623;DHT22;11478;51.094;7.030;2023-01-05T17:33:55;9.40;99.90
22623;DHT22;11478;51.094;7.030;2023-01-05T17:36:33;9.40;99.90
22623;DHT22;11478;51.094;7.030;2023-01-05T17:38:59;9.40;99.90
22623;DHT22;11478;51.094;7.030;2023-01-05T17:41:25;9.40;99.90
22623;DHT22;11478;51.094;7.030;2023-01-05T17:43:51;9.40;99.90
22623;DHT22;11478;51.094;7.030;2023-01-05T17:46:20;9.40;99.90
22623;DHT22;11478;51.094;7.030;2023-01-05T17:48:47;9.40;99.90
22623;DHT22;11478;51.094;7.030;2023-01-05T17:51:13;9.40;99.90
22623;DHT22;11478;51.094;7.030;2023-01-05T17:53:39;9.40;99.90
22623;DHT22;11478;51.094;7.030;2023-01-05T17:56:07;9.30;99.90
22623;DHT22;11478;51.094;7.030;2023-01-05T17:58:33;9.40;99.90
22623;DHT22;11478;51.094;7.030;2023-01-05T18:01:03;9.40;99.90
22623;DHT22;11478;51.094;7.030;2023-01-05T18:03:29;9.40;99.90
22623;DHT22;11478;51.094;7.030;2023-01-05T18:05:59;9.40;99.90
22623;DHT22;11478;51.094;7.030;2023-01-05T18:08:26;9.40;99.90
22623;DHT22;11478;51.094;7.030;2023-01-05T18:11:01;9.30;99.90
22623;DHT22;11478;51.094;7.030;2023-01-05T18:13:27;9.30;99.90
22623;DHT22;11478;51.094;7.030;2023-01-05T18:15:53;9.30;99.90
22623;DHT22;11478;51.094;7.030;2023-01-05T18:18:22;9.30;99.90
22623;DHT22;11478;51.094;7.030;2023-01-05T18:20:51;9.30;99.90
22623;DHT22;11478;51.094;7.030;2023-01-05T18:23:18;9.30;99.90
22623;DHT22;11478;51.094;7.030;2023-01-05T18:25:44;9.40;99.90
22623;DHT22;11478;51.094;7.030;2023-01-05T18:28:11;9.30;99.90
22623;DHT22;11478;51.094;7.030;2023-01-05T18:30:41;9.30;99.90
22623;DHT22;11478;51.094;7.030;2023-01-05T18:33:16;9.30;99.90
22623;DHT22;11478;51.094;7.030;2023-01-05T18:35:42;9.30;99.90
22623;DHT22;11478;51.094;7.030;2023-01-05T18:38:10;9.30;99.90
22623;DHT22;11478;51.094;7.030;2023-01-05T18:40:36;9.40;99.90
22623;DHT22;11478;51.094;7.030;2023-01-05T18:43:11;9.40;99.90
22623;DHT22;11478;51.094;7.030;2023-01-05T18:45:36;9.40;99.90
22623;DHT22;11478;51.094;7.030;2023-01-05T18:48:06;9.40;99.90
22623;DHT22;11478;51.094;7.030;2023-01-05T18:50:38;9.40;99.90
22623;DHT22;11478;51.094;7.030;2023-01-05T18:53:07;9.40;99.90
22623;DHT22;11478;51.094;7.030;2023-01-05T18:55:32;9.40;99.90
22623;DHT22;11478;51.094;7.030;2023-01-05T18:57:58;9.40;99.90
22623;DHT22;11478;51.094;7.030;2023-01-05T19:00:24;9.40;99.90
22623;DHT22;11478;51.094;7.030;2023-01-05T19:02:50;9.40;99.90
22623;DHT22;11478;51.094;7.030;2023-01-05T19:05:16;9.50;99.90